createdAt,value
2018-10-09T00:01:40.062Z,29.90
2018-10-09T00:04:08.270Z,29.52
2018-10-09T00:06:36.906Z,29.90
2018-10-09T00:09:06.670Z,29.85
2018-10-09T00:11:34.893Z,30.40
2018-10-09T00:14:03.321Z,28.98
2018-10-09T00:16:31.510Z,29.70
2018-10-09T00:18:59.703Z,30.95
2018-10-09T00:21:27.909Z,31.37
2018-10-09T00:23:56.078Z,31.30
2018-10-09T00:26:24.275Z,32.10
2018-10-09T00:28:52.526Z,35.20
2018-10-09T00:31:20.702Z,34.78
2018-10-09T00:33:48.884Z,35.75
2018-10-09T00:36:17.073Z,34.37
2018-10-09T00:38:45.258Z,33.77
2018-10-09T00:41:13.544Z,33.90
2018-10-09T00:43:41.723Z,33.10
2018-10-09T00:46:09.901Z,36.67
2018-10-09T00:48:38.071Z,37.10
2018-10-09T00:51:06.547Z,36.30
2018-10-09T00:53:34.747Z,37.40
2018-10-09T00:56:02.938Z,37.65
2018-10-09T00:58:31.123Z,37.13
2018-10-09T01:00:59.315Z,39.20
2018-10-09T01:03:27.500Z,37.58
2018-10-09T01:05:55.689Z,34.70
2018-10-09T01:08:23.863Z,39.48
2018-10-09T01:10:52.059Z,38.00
2018-10-09T01:13:20.251Z,39.35
2018-10-09T01:15:48.421Z,38.08
2018-10-09T01:18:16.594Z,38.25
2018-10-09T01:20:44.774Z,37.75
2018-10-09T01:23:12.975Z,37.47
2018-10-09T01:25:41.158Z,37.43
2018-10-09T01:28:09.321Z,37.43
2018-10-09T01:30:37.502Z,34.70
2018-10-09T01:33:05.791Z,37.23
2018-10-09T01:35:33.973Z,37.58
2018-10-09T01:38:02.138Z,37.30
2018-10-09T01:40:30.327Z,37.98
2018-10-09T01:42:58.540Z,38.05
2018-10-09T01:45:26.758Z,35.08
2018-10-09T01:47:54.947Z,35.45
2018-10-09T01:50:23.152Z,35.40
2018-10-09T01:52:51.341Z,32.53
2018-10-09T01:55:19.545Z,36.35
2018-10-09T01:57:47.741Z,32.10
2018-10-09T02:00:15.934Z,30.32
2018-10-09T02:02:44.139Z,30.15
2018-10-09T02:05:12.329Z,30.43
2018-10-09T02:07:40.538Z,31.90
2018-10-09T02:10:08.749Z,34.97
2018-10-09T02:12:36.978Z,36.17
2018-10-09T02:15:05.617Z,40.60
2018-10-09T02:17:33.845Z,41.70
2018-10-09T02:20:02.041Z,45.75
2018-10-09T02:22:30.242Z,44.73
2018-10-09T02:24:58.425Z,47.43
2018-10-09T02:27:26.624Z,51.47
2018-10-09T02:29:54.817Z,47.93
2018-10-09T02:32:23.031Z,42.43
2018-10-09T02:34:51.233Z,42.03
2018-10-09T02:37:19.434Z,43.40
2018-10-09T02:39:47.641Z,41.47
2018-10-09T02:42:15.846Z,48.60
2018-10-09T02:44:44.012Z,45.67
2018-10-09T02:47:12.205Z,48.38
2018-10-09T02:49:40.393Z,49.00
2018-10-09T02:52:08.586Z,51.90
2018-10-09T02:54:36.777Z,56.53
2018-10-09T02:57:05.105Z,54.18
2018-10-09T02:59:33.318Z,54.30
2018-10-09T03:02:01.514Z,56.25
2018-10-09T03:04:29.705Z,64.07
2018-10-09T03:06:57.890Z,57.93
2018-10-09T03:09:26.041Z,60.83
2018-10-09T03:11:54.226Z,60.77
2018-10-09T03:14:22.414Z,62.00
2018-10-09T03:16:50.633Z,63.83
2018-10-09T03:19:18.804Z,64.33
2018-10-09T03:21:46.973Z,65.10
2018-10-09T03:24:15.154Z,71.05
2018-10-09T03:26:43.345Z,66.12
2018-10-09T03:29:11.551Z,64.10
2018-10-09T03:31:39.742Z,63.08
2018-10-09T03:34:07.939Z,64.75
2018-10-09T03:36:36.114Z,64.55
2018-10-09T03:39:06.114Z,63.58
2018-10-09T03:41:34.318Z,59.13
2018-10-09T03:44:02.494Z,64.10
2018-10-09T03:46:30.645Z,64.75
2018-10-09T03:48:58.825Z,68.35
2018-10-09T03:51:27.002Z,65.87
2018-10-09T03:53:55.217Z,58.30
2018-10-09T03:56:23.446Z,61.80
2018-10-09T03:58:51.678Z,60.78
2018-10-09T04:01:19.909Z,54.08
2018-10-09T04:03:48.129Z,54.55
2018-10-09T04:06:16.353Z,52.30
2018-10-09T04:08:44.565Z,54.88
2018-10-09T04:11:12.771Z,56.15
2018-10-09T04:13:40.975Z,61.45
2018-10-09T04:16:10.657Z,57.65
2018-10-09T04:18:38.870Z,57.62
2018-10-09T04:21:07.656Z,52.67
2018-10-09T04:23:35.873Z,53.30
2018-10-09T04:26:04.070Z,48.77
2018-10-09T04:28:32.298Z,51.77
2018-10-09T04:31:00.481Z,56.10
2018-10-09T04:33:28.677Z,50.30
2018-10-09T04:35:56.877Z,52.38
2018-10-09T04:38:25.102Z,52.48
2018-10-09T04:40:53.310Z,54.53
2018-10-09T04:43:21.514Z,53.40
2018-10-09T04:45:49.726Z,53.78
2018-10-09T04:48:17.949Z,53.60
2018-10-09T04:50:46.137Z,55.38
2018-10-09T04:53:14.402Z,52.25
2018-10-09T04:55:42.530Z,53.45
2018-10-09T04:58:11.179Z,52.35
2018-10-09T05:00:39.433Z,55.30
2018-10-09T05:03:07.632Z,52.05
2018-10-09T05:05:35.827Z,52.40
2018-10-09T05:08:04.054Z,48.45
2018-10-09T05:10:32.261Z,50.10
2018-10-09T05:13:00.471Z,51.68
2018-10-09T05:15:28.669Z,59.15
2018-10-09T05:17:56.858Z,62.27
2018-10-09T05:20:25.064Z,56.40
2018-10-09T05:22:53.262Z,52.70
2018-10-09T05:25:21.471Z,55.00
2018-10-09T05:27:49.665Z,59.67
2018-10-09T05:30:17.888Z,60.65
2018-10-09T05:32:46.094Z,59.13
2018-10-09T05:35:14.303Z,55.12
2018-10-09T05:37:42.582Z,58.55
2018-10-09T05:40:10.954Z,59.50
2018-10-09T05:42:39.166Z,57.33
2018-10-09T05:45:07.480Z,56.00
2018-10-09T05:47:35.698Z,63.40
2018-10-09T05:50:04.158Z,57.00
2018-10-09T05:52:32.457Z,55.07
2018-10-09T05:55:00.578Z,56.97
2018-10-09T05:57:28.789Z,55.50
2018-10-09T05:59:57.011Z,56.77
2018-10-09T06:02:25.213Z,55.23
2018-10-09T06:04:53.431Z,53.45
2018-10-09T06:07:21.638Z,50.48
2018-10-09T06:09:49.865Z,49.63
2018-10-09T06:12:18.113Z,52.08
2018-10-09T06:14:46.317Z,50.67
2018-10-09T06:17:14.505Z,49.48
2018-10-09T06:19:42.701Z,50.50
2018-10-09T06:22:10.913Z,52.65
2018-10-09T06:24:39.109Z,56.88
2018-10-09T06:27:07.310Z,52.85
2018-10-09T06:29:35.525Z,52.48
2018-10-09T06:32:03.725Z,52.37
2018-10-09T06:34:32.738Z,54.53
2018-10-09T06:37:00.953Z,53.90
2018-10-09T06:39:29.154Z,51.63
2018-10-09T06:41:57.372Z,57.48
2018-10-09T06:44:25.589Z,58.42
2018-10-09T06:46:53.834Z,60.17
2018-10-09T06:49:22.038Z,59.60
2018-10-09T06:51:50.292Z,61.83
2018-10-09T06:54:18.566Z,61.10
2018-10-09T06:56:46.721Z,55.03
2018-10-09T06:59:14.928Z,53.58
2018-10-09T07:01:43.126Z,47.83
2018-10-09T07:04:11.313Z,46.05
2018-10-09T07:06:39.535Z,48.40
2018-10-09T07:09:09.623Z,57.90
2018-10-09T07:11:37.877Z,64.03
2018-10-09T09:02:15.781Z,44.17
2018-10-09T09:04:43.966Z,52.60
2018-10-09T09:07:12.167Z,47.97
2018-10-09T09:09:40.394Z,47.70
2018-10-09T09:12:08.565Z,46.00
2018-10-09T09:14:36.759Z,44.60
2018-10-09T09:17:04.988Z,44.40
2018-10-09T09:19:33.178Z,43.60
2018-10-09T09:22:01.358Z,43.07
2018-10-09T09:24:29.554Z,42.90
2018-10-09T09:26:57.846Z,44.40
2018-10-09T09:29:25.973Z,51.87
2018-10-09T09:31:54.222Z,54.07
2018-10-09T09:34:22.494Z,54.20
2018-10-09T09:36:50.686Z,55.67
2018-10-09T09:39:18.903Z,55.03
2018-10-09T09:41:47.115Z,55.50
2018-10-09T09:44:15.306Z,54.08
2018-10-09T09:46:43.508Z,54.35
2018-10-09T09:49:11.718Z,57.30
2018-10-09T09:51:39.913Z,49.37
2018-10-09T09:54:08.126Z,48.90
2018-10-09T09:56:36.330Z,46.97
2018-10-09T09:59:04.614Z,51.27
2018-10-09T10:01:38.206Z,48.60
2018-10-09T10:36:04.267Z,46.10
2018-10-09T10:38:32.670Z,51.60
2018-10-09T10:41:00.861Z,51.37
2018-10-09T10:45:56.549Z,48.70
2018-10-09T10:48:24.741Z,58.40
2018-10-09T10:50:52.909Z,58.30
2018-10-09T10:53:21.130Z,57.35
2018-10-09T10:55:49.334Z,57.27
2018-10-09T10:58:17.525Z,66.22
2018-10-09T11:00:45.726Z,57.00
2018-10-09T11:03:13.925Z,55.00
2018-10-09T11:05:42.121Z,56.18
2018-10-09T11:08:10.363Z,53.00
2018-10-09T11:10:38.494Z,49.95
2018-10-09T11:13:06.674Z,49.53
2018-10-09T11:15:34.845Z,45.37
2018-10-09T11:18:03.015Z,44.10
2018-10-09T11:20:31.207Z,43.23
2018-10-09T11:22:59.379Z,47.43
2018-10-09T11:25:27.561Z,46.63
2018-10-09T11:27:55.778Z,45.90
2018-10-09T11:30:23.961Z,47.65
2018-10-09T11:32:52.166Z,47.08
2018-10-09T11:35:20.343Z,47.35
2018-10-09T11:37:48.512Z,47.10
2018-10-09T11:40:16.722Z,46.57
2018-10-09T11:42:44.921Z,47.67
2018-10-09T11:45:13.082Z,48.38
2018-10-09T11:47:41.274Z,46.68
2018-10-09T11:50:09.510Z,49.08
2018-10-09T11:52:37.706Z,50.10
2018-10-09T11:55:05.887Z,48.42
2018-10-09T11:57:34.142Z,49.63
2018-10-09T12:00:02.318Z,48.55
2018-10-09T12:02:30.529Z,48.60
2018-10-09T12:04:58.698Z,51.10
2018-10-09T12:07:26.861Z,49.70
2018-10-09T12:09:55.054Z,49.18
2018-10-09T12:12:23.261Z,48.83
2018-10-09T12:14:51.470Z,46.98
2018-10-09T12:17:19.645Z,49.60
2018-10-09T12:19:47.833Z,48.98
2018-10-09T12:22:16.021Z,48.67
2018-10-09T12:24:44.198Z,49.83
2018-10-09T12:27:12.485Z,50.23
2018-10-09T12:29:40.549Z,48.20
2018-10-09T12:32:08.754Z,49.70
2018-10-09T12:34:36.905Z,46.60
2018-10-09T12:37:05.053Z,46.15
2018-10-09T12:39:33.216Z,44.30
2018-10-09T12:42:01.378Z,44.23
2018-10-09T12:44:29.597Z,43.83
2018-10-09T12:46:57.706Z,44.15
2018-10-09T12:49:25.866Z,44.73
2018-10-09T12:51:54.015Z,45.17
2018-10-09T12:54:22.159Z,43.02
2018-10-09T12:56:50.449Z,44.30
2018-10-09T12:59:18.507Z,43.13
2018-10-09T13:01:46.677Z,39.67
2018-10-09T13:04:14.854Z,40.83
2018-10-09T13:06:43.013Z,41.13
2018-10-09T13:09:12.794Z,41.05
2018-10-09T13:11:40.945Z,40.35
2018-10-09T13:14:09.110Z,40.23
2018-10-09T13:16:37.266Z,40.17
2018-10-09T13:19:05.461Z,40.83
2018-10-09T13:21:33.815Z,39.50
2018-10-09T13:24:01.763Z,40.23
2018-10-09T13:26:29.921Z,40.33
2018-10-09T13:28:58.063Z,40.48
2018-10-09T13:31:26.233Z,40.58
2018-10-09T13:33:54.408Z,40.58
2018-10-09T13:36:22.553Z,39.25
2018-10-09T13:38:50.702Z,40.90
2018-10-09T13:41:18.870Z,37.60
2018-10-09T13:43:47.010Z,38.60
2018-10-09T13:46:15.170Z,38.40
2018-10-09T13:48:43.330Z,37.90
2018-10-09T13:51:11.486Z,36.03
2018-10-09T13:53:39.647Z,38.00
2018-10-09T13:56:07.802Z,37.00
2018-10-09T13:58:35.962Z,37.28
2018-10-09T14:01:04.158Z,35.30
2018-10-09T14:03:32.340Z,36.33
2018-10-09T14:06:00.489Z,35.88
2018-10-09T14:08:28.642Z,36.48
2018-10-09T14:10:56.795Z,35.35
2018-10-09T14:13:24.958Z,34.13
2018-10-09T14:15:53.104Z,35.03
2018-10-09T14:18:21.269Z,34.15
2018-10-09T14:20:49.422Z,35.52
2018-10-09T14:23:17.670Z,36.15
2018-10-09T14:25:45.709Z,33.70
2018-10-09T14:28:13.862Z,35.00
2018-10-09T14:30:42.001Z,33.88
2018-10-09T14:33:10.773Z,35.35
2018-10-09T14:35:39.465Z,33.03
2018-10-09T14:38:07.630Z,34.27
2018-10-09T14:40:35.773Z,33.42
2018-10-09T14:43:03.937Z,37.30
2018-10-09T14:45:32.094Z,38.02
2018-10-09T14:48:00.270Z,36.80
2018-10-09T14:50:28.429Z,37.17
2018-10-09T14:52:56.574Z,36.55
2018-10-09T14:55:24.721Z,35.33
2018-10-09T14:57:52.889Z,35.73
2018-10-09T15:00:21.026Z,37.40
2018-10-09T15:02:49.192Z,35.25
2018-10-09T15:05:17.352Z,36.83
2018-10-09T15:07:45.505Z,32.00
2018-10-09T15:10:13.649Z,30.07
2018-10-09T15:12:41.798Z,31.27
2018-10-09T15:15:09.958Z,30.85
2018-10-09T15:17:38.215Z,31.07
2018-10-09T15:20:08.210Z,32.33
2018-10-09T15:22:36.358Z,31.57
2018-10-09T15:25:04.531Z,30.87
2018-10-09T15:27:32.690Z,39.15
2018-10-09T15:30:00.858Z,33.90
2018-10-09T15:32:29.018Z,30.45
2018-10-09T15:34:57.174Z,29.00
2018-10-09T15:37:25.331Z,27.85
2018-10-09T15:39:53.489Z,30.80
2018-10-09T15:42:21.659Z,30.70
2018-10-09T15:44:49.916Z,29.50
2018-10-09T15:47:18.156Z,30.70
2018-10-09T15:49:46.266Z,27.95
2018-10-09T15:52:14.445Z,28.73
2018-10-09T15:54:42.601Z,27.93
2018-10-09T15:57:10.754Z,29.85
2018-10-09T15:59:38.905Z,31.20
2018-10-09T16:02:07.100Z,28.40
2018-10-09T16:04:35.271Z,28.07
2018-10-09T16:07:03.438Z,29.35
2018-10-09T16:09:31.598Z,29.37
2018-10-09T16:11:59.746Z,30.40
2018-10-09T16:14:27.904Z,27.00
2018-10-09T16:16:56.041Z,27.33
2018-10-09T16:19:24.214Z,28.38
2018-10-09T16:21:52.372Z,25.23
2018-10-09T16:24:20.533Z,27.20
2018-10-09T16:26:48.679Z,26.10
2018-10-09T16:29:16.846Z,25.53
2018-10-09T16:31:44.985Z,23.00
2018-10-09T16:34:13.146Z,26.42
2018-10-09T16:36:41.301Z,23.27
2018-10-09T16:44:06.008Z,25.02
2018-10-09T16:46:34.166Z,24.10
2018-10-09T16:49:02.374Z,25.00
2018-10-09T16:51:30.690Z,25.12
2018-10-09T16:53:58.850Z,25.88
2018-10-09T16:56:27.010Z,23.75
2018-10-09T16:58:55.153Z,25.23
2018-10-09T17:01:23.308Z,21.87
2018-10-09T17:03:51.490Z,23.73
2018-10-09T17:06:19.647Z,24.00
2018-10-09T17:08:47.805Z,23.95
2018-10-09T17:11:16.014Z,23.05
2018-10-09T17:13:44.264Z,23.20
2018-10-09T17:16:12.753Z,24.65
2018-10-09T17:18:40.930Z,23.52
2018-10-09T17:21:09.086Z,20.05
2018-10-09T17:23:37.237Z,19.98
2018-10-09T17:26:05.654Z,18.90
2018-10-09T17:28:33.826Z,17.83
2018-10-09T17:31:02.016Z,18.70
2018-10-09T17:33:30.108Z,18.80
2018-10-09T17:35:58.257Z,18.00
2018-10-09T17:38:26.414Z,14.83
2018-10-09T17:40:55.245Z,17.00
2018-10-09T17:43:23.393Z,16.27
2018-10-09T17:45:51.545Z,16.50
2018-10-09T17:48:19.729Z,17.10
2018-10-09T17:50:47.889Z,15.30
2018-10-09T17:53:16.031Z,16.43
2018-10-09T17:55:44.173Z,15.63
2018-10-09T17:58:12.327Z,14.23
2018-10-09T18:00:40.478Z,15.10
2018-10-09T18:03:08.621Z,15.43
2018-10-09T18:05:36.754Z,16.23
2018-10-09T18:08:04.893Z,14.80
2018-10-09T18:10:33.053Z,14.63
2018-10-09T18:13:01.197Z,12.20
2018-10-09T18:15:29.357Z,11.20
2018-10-09T18:17:57.510Z,13.70
2018-10-09T18:20:25.736Z,15.32
2018-10-09T18:22:53.827Z,15.57
2018-10-09T18:25:21.985Z,16.00
2018-10-09T18:27:50.168Z,15.13
2018-10-09T18:30:18.331Z,15.75
2018-10-09T18:32:46.761Z,15.15
2018-10-09T18:35:14.803Z,16.12
2018-10-09T18:37:42.982Z,16.93
2018-10-09T18:40:11.138Z,21.55
2018-10-09T18:42:39.419Z,18.52
2018-10-09T18:45:07.533Z,19.73
2018-10-09T18:47:42.974Z,19.92
2018-10-09T18:50:11.558Z,19.98
2018-10-09T18:52:40.400Z,21.70
2018-10-09T18:55:10.521Z,20.60
2018-10-09T18:57:38.690Z,19.20
2018-10-09T19:00:07.949Z,17.00
2018-10-09T19:02:36.121Z,16.87
2018-10-09T19:05:04.521Z,17.73
2018-10-09T19:07:32.668Z,18.37
2018-10-09T19:10:00.810Z,18.90
2018-10-09T19:12:28.982Z,16.70
2018-10-09T19:14:57.114Z,15.70
2018-10-09T19:17:25.270Z,13.83
2018-10-09T19:22:20.953Z,14.10
2018-10-09T19:24:49.114Z,14.43
2018-10-09T19:27:17.282Z,15.65
2018-10-09T19:29:45.466Z,15.30
2018-10-09T19:32:13.632Z,16.37
2018-10-09T19:34:41.838Z,18.23
2018-10-09T19:37:10.035Z,18.13
2018-10-09T19:39:38.225Z,19.53
2018-10-09T19:42:06.365Z,17.00
2018-10-09T19:44:34.506Z,22.22
2018-10-09T19:47:02.673Z,17.80
2018-10-09T19:49:30.830Z,14.00
2018-10-09T19:51:59.006Z,14.50
2018-10-09T19:54:27.162Z,15.60
2018-10-09T19:56:55.326Z,14.33
2018-10-09T19:59:23.541Z,35.92
2018-10-09T20:01:51.626Z,43.28
2018-10-09T20:04:19.785Z,69.27
2018-10-09T20:06:47.933Z,50.10
2018-10-09T20:09:16.079Z,51.50
2018-10-09T20:11:44.245Z,41.75
2018-10-09T20:14:13.804Z,22.80
2018-10-09T20:16:42.014Z,20.87
2018-10-09T20:19:11.158Z,18.20
2018-10-09T20:21:39.301Z,20.63
2018-10-09T20:24:07.594Z,22.62
2018-10-09T20:26:36.154Z,21.20
2018-10-09T20:29:04.322Z,18.23
2018-10-09T20:31:32.474Z,17.87
2018-10-09T20:34:00.653Z,17.83
2018-10-09T20:36:28.808Z,18.63
2018-10-09T20:38:56.955Z,18.52
2018-10-09T20:41:25.656Z,17.55
2018-10-09T20:43:53.823Z,17.48
2018-10-09T20:46:21.962Z,18.42
2018-10-09T20:48:50.137Z,17.80
2018-10-09T20:51:18.330Z,17.57
2018-10-09T20:53:46.499Z,19.10
2018-10-09T20:56:14.646Z,19.20
2018-10-09T20:58:42.810Z,20.27
2018-10-09T21:01:10.958Z,19.00
2018-10-09T21:03:39.112Z,19.02
2018-10-09T21:06:07.388Z,18.65
2018-10-09T21:08:35.446Z,18.80
2018-10-09T21:11:03.618Z,19.10
2018-10-09T21:13:31.795Z,18.45
2018-10-09T21:15:59.945Z,18.92
2018-10-09T21:18:28.130Z,18.92
2018-10-09T21:20:56.322Z,19.10
2018-10-09T21:23:24.486Z,18.23
2018-10-09T21:25:52.629Z,17.80
2018-10-09T21:28:20.786Z,17.42
2018-10-09T21:30:48.946Z,18.30
2018-10-09T21:33:17.110Z,18.17
2018-10-09T21:35:45.266Z,16.23
2018-10-09T21:38:13.421Z,18.07
2018-10-09T21:40:41.577Z,17.60
2018-10-09T21:43:09.742Z,17.30
2018-10-09T21:45:37.921Z,20.30
2018-10-09T21:48:06.089Z,19.90
2018-10-09T21:50:34.630Z,20.12
2018-10-09T21:53:02.765Z,19.47
2018-10-09T21:55:30.997Z,19.93
2018-10-09T21:57:59.247Z,21.57
2018-10-09T22:00:27.530Z,22.03
2018-10-09T22:02:55.706Z,22.03
2018-10-09T22:05:23.854Z,21.70
2018-10-09T22:07:52.066Z,17.70
2018-10-09T22:10:20.221Z,22.25
2018-10-09T22:12:48.377Z,21.75
2018-10-09T22:15:16.546Z,22.52
2018-10-09T22:17:44.694Z,24.40
2018-10-09T22:20:12.904Z,22.77
2018-10-09T22:22:41.079Z,24.07
2018-10-09T22:25:09.262Z,27.27
2018-10-09T22:27:37.426Z,25.90
2018-10-09T22:30:05.966Z,29.45
2018-10-09T22:32:34.121Z,25.40
2018-10-09T22:35:02.284Z,24.60
2018-10-09T22:37:30.430Z,23.10
2018-10-09T22:39:58.598Z,24.55
2018-10-09T22:42:26.775Z,27.45
2018-10-09T22:44:54.934Z,27.48
2018-10-09T22:47:23.129Z,28.27
2018-10-09T22:49:51.317Z,24.02
2018-10-09T22:52:19.486Z,23.50
2018-10-09T22:54:47.650Z,24.45
2018-10-09T22:57:15.820Z,27.90
2018-10-09T22:59:44.002Z,29.27
2018-10-09T23:02:12.178Z,30.40
2018-10-09T23:04:40.362Z,32.50
2018-10-09T23:07:08.597Z,35.75
2018-10-09T23:09:36.778Z,33.78
2018-10-09T23:12:04.946Z,32.45
2018-10-09T23:14:33.141Z,38.25
2018-10-09T23:17:01.314Z,32.13
2018-10-09T23:19:29.546Z,34.65
2018-10-09T23:21:57.731Z,37.23
2018-10-09T23:24:25.922Z,41.30
2018-10-09T23:26:54.089Z,34.00
2018-10-09T23:29:22.260Z,37.58
2018-10-09T23:31:50.423Z,34.98
2018-10-09T23:34:18.566Z,33.85
2018-10-09T23:36:46.749Z,36.55
2018-10-09T23:39:14.895Z,33.10
2018-10-09T23:41:43.065Z,32.10
2018-10-09T23:44:11.227Z,33.77
2018-10-09T23:46:39.398Z,33.43
2018-10-09T23:49:07.567Z,33.77
2018-10-09T23:51:35.724Z,33.57
2018-10-09T23:54:03.935Z,32.73
2018-10-09T23:56:32.045Z,33.05
2018-10-09T23:59:00.214Z,34.48
